createdAt,value
2017-03-03T00:00:16.986Z,4.28
2017-03-03T00:00:57.434Z,4.33
2017-03-03T00:01:37.878Z,4.4
2017-03-03T00:02:18.303Z,4.37
2017-03-03T00:02:58.747Z,4.29
2017-03-03T00:03:39.185Z,4.25
2017-03-03T00:04:19.619Z,4.24
2017-03-03T00:05:00.037Z,4.26
2017-03-03T00:05:40.485Z,4.32
2017-03-03T00:06:20.921Z,4.25
2017-03-03T00:07:01.381Z,4.34
2017-03-03T00:07:41.829Z,4.32
2017-03-03T00:08:22.269Z,4.39
2017-03-03T00:09:02.706Z,4.34
2017-03-03T00:09:43.134Z,4.25
2017-03-03T00:10:23.567Z,4.16
2017-03-03T00:11:03.988Z,4.24
2017-03-03T00:11:44.403Z,4.25
2017-03-03T00:12:24.833Z,4.24
2017-03-03T00:13:06.071Z,4.21
2017-03-03T00:13:46.503Z,4.28
2017-03-03T00:14:26.927Z,4.19
2017-03-03T00:15:07.378Z,4.16
2017-03-03T00:15:47.810Z,4.24
2017-03-03T00:16:28.239Z,4.22
2017-03-03T00:17:08.687Z,4.25
2017-03-03T00:17:49.114Z,4.19
2017-03-03T00:18:29.574Z,4.18
2017-03-03T00:19:09.978Z,4.12
2017-03-03T00:19:50.402Z,4.22
2017-03-03T00:20:30.847Z,4.24
2017-03-03T00:21:11.279Z,4.1
2017-03-03T00:21:51.723Z,4.04
2017-03-03T00:22:32.155Z,4.03
2017-03-03T00:23:12.609Z,4
2017-03-03T00:23:53.027Z,4.04
2017-03-03T00:24:33.454Z,4.15
2017-03-03T00:25:13.887Z,4.15
2017-03-03T00:25:54.324Z,4.16
2017-03-03T00:26:34.763Z,4.12
2017-03-03T00:27:15.190Z,4.19
2017-03-03T00:27:55.638Z,4.06
2017-03-03T00:28:36.097Z,4.03
2017-03-03T00:29:16.530Z,4.01
2017-03-03T00:29:56.963Z,3.92
2017-03-03T00:30:37.411Z,3.92
2017-03-03T00:31:17.841Z,3.89
2017-03-03T00:31:58.275Z,4.03
2017-03-03T00:32:38.712Z,4.03
2017-03-03T00:33:19.145Z,3.86
2017-03-03T00:33:59.567Z,3.9
2017-03-03T00:34:40.640Z,3.9
2017-03-03T00:35:21.091Z,3.86
2017-03-03T00:36:01.522Z,3.94
2017-03-03T00:36:41.946Z,3.96
2017-03-03T00:37:22.403Z,3.94
2017-03-03T00:38:02.841Z,3.72
2017-03-03T00:38:43.285Z,3.7
2017-03-03T00:39:23.720Z,3.75
2017-03-03T00:40:04.158Z,3.68
2017-03-03T00:40:44.593Z,3.8
2017-03-03T00:41:25.044Z,3.71
2017-03-03T00:42:05.488Z,3.86
2017-03-03T00:42:45.931Z,3.94
2017-03-03T00:43:26.379Z,3.89
2017-03-03T00:44:06.818Z,3.92
2017-03-03T00:44:47.253Z,3.98
2017-03-03T00:45:27.695Z,3.97
2017-03-03T00:46:08.127Z,4.03
2017-03-03T00:46:48.568Z,4
2017-03-03T00:47:29.005Z,3.92
2017-03-03T00:48:09.443Z,3.89
2017-03-03T00:48:49.886Z,3.96
2017-03-03T00:49:30.352Z,3.96
2017-03-03T00:50:10.783Z,3.88
2017-03-03T00:50:51.222Z,3.92
2017-03-03T00:51:31.653Z,3.98
2017-03-03T00:52:12.089Z,3.9
2017-03-03T00:52:52.527Z,3.92
2017-03-03T00:53:32.966Z,3.88
2017-03-03T00:54:13.406Z,3.79
2017-03-03T00:54:53.835Z,3.88
2017-03-03T00:55:34.262Z,3.89
2017-03-03T00:56:14.706Z,3.94
2017-03-03T00:56:55.140Z,3.98
2017-03-03T00:57:35.570Z,3.97
2017-03-03T00:58:16.022Z,4.01
2017-03-03T00:58:56.458Z,4.16
2017-03-03T00:59:36.883Z,4.16
2017-03-03T01:00:17.326Z,4.16
2017-03-03T01:00:57.763Z,4.04
2017-03-03T01:01:38.180Z,4.1
2017-03-03T01:02:18.585Z,4.15
2017-03-03T01:02:59.561Z,4.16
2017-03-03T01:03:39.993Z,4.25
2017-03-03T01:04:20.421Z,4.24
2017-03-03T01:05:00.872Z,4.36
2017-03-03T01:05:41.305Z,4.4
2017-03-03T01:06:21.736Z,4.46
2017-03-03T01:07:02.182Z,4.43
2017-03-03T01:07:42.613Z,4.46
2017-03-03T01:08:23.064Z,4.51
2017-03-03T01:09:03.490Z,4.42
2017-03-03T01:09:43.921Z,4.4
2017-03-03T01:10:24.348Z,4.47
2017-03-03T01:11:04.782Z,4.43
2017-03-03T01:11:45.211Z,4.46
2017-03-03T01:12:25.653Z,4.51
2017-03-03T01:13:06.080Z,4.51
2017-03-03T01:13:46.481Z,4.47
2017-03-03T01:14:27.643Z,4.42
2017-03-03T01:15:08.080Z,4.37
2017-03-03T01:15:48.525Z,4.39
2017-03-03T01:16:28.943Z,4.4
2017-03-03T01:17:09.374Z,4.39
2017-03-03T01:17:49.817Z,4.39
2017-03-03T01:18:30.254Z,4.34
2017-03-03T01:19:11.562Z,4.28
2017-03-03T01:19:51.991Z,4.25
2017-03-03T01:20:32.442Z,4.21
2017-03-03T01:21:12.864Z,4.19
2017-03-03T01:21:53.297Z,4.22
2017-03-03T01:22:33.731Z,4.26
2017-03-03T01:23:14.171Z,4.26
2017-03-03T01:23:54.631Z,4.24
2017-03-03T01:24:35.063Z,4.32
2017-03-03T01:25:15.464Z,4.22
2017-03-03T01:25:55.900Z,4.29
2017-03-03T01:26:36.339Z,4.26
2017-03-03T01:27:16.782Z,4.24
2017-03-03T01:27:57.221Z,4.22
2017-03-03T01:28:37.651Z,4.24
2017-03-03T01:29:18.090Z,4.32
2017-03-03T01:29:58.536Z,4.4
2017-03-03T01:30:38.972Z,4.36
2017-03-03T01:31:19.422Z,4.32
2017-03-03T01:31:59.854Z,4.39
2017-03-03T01:32:40.308Z,4.5
2017-03-03T01:33:20.756Z,4.33
2017-03-03T01:34:01.199Z,4.33
2017-03-03T01:34:41.653Z,4.34
2017-03-03T01:35:22.096Z,4.4
2017-03-03T01:36:02.537Z,4.39
2017-03-03T01:36:42.970Z,4.52
2017-03-03T01:37:23.405Z,4.47
2017-03-03T01:38:03.867Z,4.36
2017-03-03T01:38:44.307Z,4.39
2017-03-03T01:39:24.729Z,4.29
2017-03-03T01:40:05.165Z,4.28
2017-03-03T01:40:45.552Z,4.33
2017-03-03T01:41:25.959Z,4.28
2017-03-03T01:42:06.370Z,4.28
2017-03-03T01:42:46.746Z,4.33
2017-03-03T01:43:27.111Z,4.28
2017-03-03T01:44:07.519Z,4.33
2017-03-03T01:44:47.887Z,4.26
2017-03-03T01:45:28.287Z,4.25
2017-03-03T01:46:08.723Z,4.24
2017-03-03T01:46:49.160Z,4.26
2017-03-03T01:47:29.586Z,4.25
2017-03-03T01:48:10.027Z,4.22
2017-03-03T01:48:50.476Z,4.22
2017-03-03T01:49:30.920Z,4.19
2017-03-03T01:50:11.347Z,4.16
2017-03-03T01:50:51.773Z,4.18
2017-03-03T01:51:32.210Z,4.15
2017-03-03T01:52:12.642Z,4.15
2017-03-03T01:52:53.063Z,4.03
2017-03-03T01:53:33.499Z,4
2017-03-03T01:54:13.949Z,3.98
2017-03-03T01:54:54.380Z,4.03
2017-03-03T01:55:34.802Z,3.96
2017-03-03T01:56:15.236Z,3.94
2017-03-03T01:56:55.665Z,3.94
2017-03-03T01:57:36.104Z,3.88
2017-03-03T01:58:16.526Z,3.92
2017-03-03T01:58:56.960Z,3.9
2017-03-03T01:59:37.386Z,3.96
2017-03-03T02:00:17.804Z,3.85
2017-03-03T02:00:58.240Z,3.96
2017-03-03T02:01:38.675Z,3.94
2017-03-03T02:02:19.111Z,3.92
2017-03-03T02:02:59.566Z,3.85
2017-03-03T02:03:39.997Z,3.83
2017-03-03T02:04:20.426Z,3.78
2017-03-03T02:05:00.844Z,3.79
2017-03-03T02:05:41.280Z,3.92
2017-03-03T02:06:22.463Z,3.94
2017-03-03T02:07:02.894Z,3.8
2017-03-03T02:07:43.347Z,3.82
2017-03-03T02:08:23.789Z,3.88
2017-03-03T02:09:04.228Z,3.79
2017-03-03T02:09:44.660Z,3.71
2017-03-03T02:10:25.078Z,3.7
2017-03-03T02:11:05.507Z,3.72
2017-03-03T02:11:45.941Z,3.67
2017-03-03T02:12:26.400Z,3.6
2017-03-03T02:13:06.850Z,3.49
2017-03-03T02:13:47.285Z,3.49
2017-03-03T02:14:27.731Z,3.46
2017-03-03T02:15:08.177Z,3.39
2017-03-03T02:15:48.622Z,3.44
2017-03-03T02:16:29.060Z,3.49
2017-03-03T02:17:09.505Z,3.65
2017-03-03T02:17:49.955Z,3.68
2017-03-03T02:18:30.401Z,3.65
2017-03-03T02:19:10.842Z,3.68
2017-03-03T02:19:51.283Z,3.64
2017-03-03T02:20:31.727Z,3.68
2017-03-03T02:21:12.163Z,3.61
2017-03-03T02:21:52.601Z,3.6
2017-03-03T02:22:33.067Z,3.7
2017-03-03T02:23:13.515Z,3.65
2017-03-03T02:23:53.944Z,3.65
2017-03-03T02:24:34.367Z,3.7
2017-03-03T02:25:14.800Z,3.64
2017-03-03T02:25:55.233Z,3.65
2017-03-03T02:26:35.674Z,3.54
2017-03-03T02:27:16.109Z,3.49
2017-03-03T02:29:03.544Z,3.57
2017-03-03T02:29:43.986Z,3.67
2017-03-03T02:30:24.420Z,3.57
2017-03-03T02:31:04.841Z,3.67
2017-03-03T02:31:45.239Z,3.6
2017-03-03T02:33:42.785Z,3.47
2017-03-03T02:34:23.222Z,3.47
2017-03-03T02:35:03.658Z,3.34
2017-03-03T02:35:44.099Z,3.42
2017-03-03T02:36:24.522Z,3.43
2017-03-03T02:37:04.955Z,3.34
2017-03-03T02:37:45.367Z,3.2
2017-03-03T02:38:25.763Z,3.16
2017-03-03T02:39:06.183Z,3.15
2017-03-03T02:39:46.622Z,3.18
2017-03-03T02:40:27.041Z,3.33
2017-03-03T02:41:07.470Z,3.4
2017-03-03T02:41:47.907Z,3.42
2017-03-03T02:42:28.541Z,3.4
2017-03-03T02:43:08.971Z,3.46
2017-03-03T02:43:49.406Z,3.47
2017-03-03T02:44:29.850Z,3.42
2017-03-03T02:46:17.263Z,3.43
2017-03-03T02:46:57.710Z,3.34
2017-03-03T02:47:38.150Z,3.23
2017-03-03T02:48:18.566Z,3.12
2017-03-03T02:48:58.988Z,3.03
2017-03-03T02:49:39.420Z,3.16
2017-03-03T02:50:19.829Z,3.15
2017-03-03T02:51:00.259Z,3.21
2017-03-03T02:51:40.664Z,3.16
2017-03-03T02:52:21.084Z,3.2
2017-03-03T02:53:01.512Z,3.16
2017-03-03T02:53:41.924Z,3.07
2017-03-03T02:54:22.329Z,3.16
2017-03-03T02:55:02.749Z,3.16
2017-03-03T02:55:43.156Z,3.28
2017-03-03T02:57:40.692Z,3.27
2017-03-03T02:58:21.128Z,3.2
2017-03-03T02:59:01.557Z,3.21
2017-03-03T02:59:42.683Z,3.24
2017-03-03T03:00:23.839Z,3.2
2017-03-03T03:01:04.246Z,3.23
2017-03-03T03:01:44.708Z,3.28
2017-03-03T03:02:25.102Z,3.42
2017-03-03T03:03:05.522Z,3.28
2017-03-03T03:03:45.935Z,3.25
2017-03-03T03:04:26.336Z,3.16
2017-03-03T03:05:06.741Z,3.16
2017-03-03T03:05:47.151Z,3.18
2017-03-03T03:06:27.568Z,3.24
2017-03-03T03:07:07.952Z,3.31
2017-03-03T03:07:48.339Z,3.27
2017-03-03T03:08:28.832Z,3.52
2017-03-03T03:10:41.472Z,3.4
2017-03-03T03:11:21.875Z,3.4
2017-03-03T03:12:02.300Z,3.54
2017-03-03T03:12:42.738Z,3.52
2017-03-03T03:13:23.139Z,3.6
2017-03-03T03:15:15.601Z,3.4
2017-03-03T03:16:52.934Z,3.46
2017-03-03T03:17:33.372Z,3.47
2017-03-03T03:18:13.825Z,3.47
2017-03-03T03:18:54.246Z,3.46
2017-03-03T03:19:34.688Z,3.46
2017-03-03T03:20:15.123Z,3.44
2017-03-03T03:20:55.561Z,3.36
2017-03-03T03:21:35.997Z,3.43
2017-03-03T03:22:16.435Z,3.43
2017-03-03T03:22:56.869Z,3.43
2017-03-03T03:23:37.316Z,3.33
2017-03-03T03:24:17.743Z,3.33
2017-03-03T03:24:58.180Z,3.43
2017-03-03T03:25:38.627Z,3.39
2017-03-03T03:26:19.059Z,3.24
2017-03-03T03:26:59.496Z,3.25
2017-03-03T03:27:39.935Z,3.3
2017-03-03T03:28:20.367Z,3.33
2017-03-03T03:29:00.812Z,3.39
2017-03-03T03:29:41.254Z,3.4
2017-03-03T03:30:21.686Z,3.42
2017-03-03T03:31:02.103Z,3.44
2017-03-03T03:31:42.543Z,3.4
2017-03-03T03:32:22.977Z,3.43
2017-03-03T03:33:03.413Z,3.46
2017-03-03T03:33:43.860Z,3.43
2017-03-03T03:34:24.281Z,3.49
2017-03-03T03:35:04.700Z,3.5
2017-03-03T03:35:45.125Z,3.42
2017-03-03T03:36:25.563Z,3.42
2017-03-03T03:37:06.003Z,3.18
2017-03-03T03:37:46.442Z,3.18
2017-03-03T03:38:26.880Z,3.13
2017-03-03T03:39:07.322Z,3.15
2017-03-03T03:39:47.755Z,3.16
2017-03-03T03:40:28.199Z,3.13
2017-03-03T03:41:08.629Z,3.15
2017-03-03T03:41:49.069Z,3.23
2017-03-03T03:42:29.508Z,3.25
2017-03-03T03:43:09.950Z,3.28
2017-03-03T03:43:50.379Z,3.39
2017-03-03T03:44:31.337Z,3.39
2017-03-03T03:45:11.757Z,3.52
2017-03-03T03:45:52.213Z,3.39
2017-03-03T03:46:32.663Z,3.36
2017-03-03T03:47:13.110Z,3.34
2017-03-03T03:47:54.094Z,3.42
2017-03-03T03:48:34.515Z,3.34
2017-03-03T03:49:14.963Z,3.27
2017-03-03T03:49:55.401Z,3.39
2017-03-03T03:50:35.834Z,3.4
2017-03-03T03:51:16.276Z,3.43
2017-03-03T03:51:56.707Z,3.47
2017-03-03T03:52:37.153Z,3.49
2017-03-03T03:53:17.576Z,3.34
2017-03-03T03:53:58.005Z,3.54
2017-03-03T03:54:38.436Z,3.5
2017-03-03T03:55:18.886Z,3.75
2017-03-03T03:55:59.315Z,3.71
2017-03-03T03:56:39.739Z,3.75
2017-03-03T03:57:20.178Z,3.85
2017-03-03T03:58:00.624Z,3.85
2017-03-03T03:58:41.072Z,3.96
2017-03-03T03:59:21.532Z,3.89
2017-03-03T04:00:01.961Z,3.8
2017-03-03T04:00:42.393Z,3.96
2017-03-03T04:01:22.830Z,3.98
2017-03-03T04:02:03.273Z,3.98
2017-03-03T04:02:43.723Z,4.07
2017-03-03T04:03:24.155Z,4.07
2017-03-03T04:04:04.589Z,4.14
2017-03-03T04:04:45.031Z,4.24
2017-03-03T04:05:25.465Z,4.28
2017-03-03T04:06:05.923Z,4.25
2017-03-03T04:06:46.372Z,4.28
2017-03-03T04:07:26.808Z,4.16
2017-03-03T04:08:07.211Z,4.22
2017-03-03T04:08:47.657Z,4.25
2017-03-03T04:09:28.104Z,4.29
2017-03-03T04:10:08.547Z,4.28
2017-03-03T04:10:48.983Z,4.25
2017-03-03T04:11:29.412Z,4.28
2017-03-03T04:12:09.872Z,4.22
2017-03-03T04:12:50.304Z,4.21
2017-03-03T04:13:30.752Z,4.18
2017-03-03T04:14:11.181Z,4.14
2017-03-03T04:14:51.624Z,4.24
2017-03-03T04:15:32.052Z,4.19
2017-03-03T04:16:12.503Z,4.15
2017-03-03T04:16:52.939Z,4.19
2017-03-03T04:17:33.392Z,4.1
2017-03-03T04:18:13.809Z,4.25
2017-03-03T04:18:54.245Z,4.21
2017-03-03T04:19:34.679Z,4.21
2017-03-03T04:20:15.136Z,4.18
2017-03-03T04:20:55.584Z,4.21
2017-03-03T04:21:36.015Z,4.19
2017-03-03T04:22:16.437Z,4.25
2017-03-03T04:22:56.878Z,4.22
2017-03-03T04:23:37.324Z,4.21
2017-03-03T04:24:17.775Z,4.22
2017-03-03T04:24:58.215Z,4.22
2017-03-03T04:25:38.652Z,4.19
2017-03-03T04:26:19.088Z,4.29
2017-03-03T04:26:59.515Z,4.32
2017-03-03T04:27:39.963Z,4.32
2017-03-03T04:28:21.240Z,4.24
2017-03-03T04:29:01.693Z,4.29
2017-03-03T04:29:42.123Z,4.25
2017-03-03T04:30:22.554Z,4.33
2017-03-03T04:31:02.974Z,4.44
2017-03-03T04:31:43.425Z,4.36
2017-03-03T04:32:23.852Z,4.33
2017-03-03T04:33:04.291Z,4.34
2017-03-03T04:33:44.736Z,4.4
2017-03-03T04:34:25.175Z,4.36
2017-03-03T04:35:05.615Z,4.32
2017-03-03T04:35:46.070Z,4.37
2017-03-03T04:36:26.513Z,4.36
2017-03-03T04:37:06.955Z,4.36
2017-03-03T04:37:47.390Z,4.47
2017-03-03T04:38:27.814Z,4.47
2017-03-03T04:39:08.261Z,4.4
2017-03-03T04:39:48.691Z,4.44
2017-03-03T04:40:29.125Z,4.44
2017-03-03T04:41:09.556Z,4.46
2017-03-03T04:41:49.995Z,4.5
2017-03-03T04:42:30.470Z,4.37
2017-03-03T04:43:10.912Z,4.4
2017-03-03T04:43:51.363Z,4.4
2017-03-03T04:44:31.804Z,4.5
2017-03-03T04:46:29.383Z,4.42
2017-03-03T04:47:09.808Z,4.36
2017-03-03T04:47:50.255Z,4.4
2017-03-03T04:48:30.690Z,4.29
2017-03-03T04:49:11.115Z,4.26
2017-03-03T04:49:51.575Z,4.22
2017-03-03T04:50:31.996Z,4.28
2017-03-03T04:51:12.431Z,4.28
2017-03-03T04:51:52.879Z,4.22
2017-03-03T04:52:33.301Z,4.19
2017-03-03T04:53:13.725Z,4.24
2017-03-03T04:53:54.156Z,4.25
2017-03-03T04:54:34.596Z,4.28
2017-03-03T04:55:15.044Z,4.32
2017-03-03T04:55:55.457Z,4.28
2017-03-03T04:56:35.910Z,4.26
2017-03-03T04:57:16.320Z,4.32
2017-03-03T04:57:56.756Z,4.24
2017-03-03T04:58:37.185Z,4.16
2017-03-03T04:59:17.590Z,4.25
2017-03-03T04:59:58.036Z,4.22
2017-03-03T05:00:38.455Z,4.24
2017-03-03T05:01:19.779Z,4.22
2017-03-03T05:02:00.192Z,4.22
2017-03-03T05:02:40.640Z,4.25
2017-03-03T05:03:21.069Z,4.21
2017-03-03T05:04:01.504Z,4.14
2017-03-03T05:04:42.684Z,4.24
2017-03-03T05:05:23.104Z,4.19
2017-03-03T05:06:03.537Z,4.21
2017-03-03T05:07:40.884Z,4.21
2017-03-03T05:08:21.317Z,4.15
2017-03-03T05:09:01.748Z,4.18
2017-03-03T05:09:42.204Z,4.01
2017-03-03T05:10:22.662Z,4.19
2017-03-03T05:11:03.112Z,4.25
2017-03-03T05:11:43.549Z,4.15
2017-03-03T05:12:23.969Z,4.1
2017-03-03T05:13:04.426Z,4.15
2017-03-03T05:13:44.862Z,4.12
2017-03-03T05:14:25.311Z,4.07
2017-03-03T05:15:05.757Z,4.03
2017-03-03T05:15:46.181Z,4.04
2017-03-03T05:16:26.609Z,3.98
2017-03-03T05:17:07.055Z,4.06
2017-03-03T05:17:47.498Z,4
2017-03-03T05:18:28.014Z,4.1
2017-03-03T05:19:08.437Z,4.19
2017-03-03T05:19:48.873Z,4.21
2017-03-03T05:20:29.325Z,4.24
2017-03-03T05:21:09.755Z,4.21
2017-03-03T05:21:50.175Z,4.19
2017-03-03T05:22:30.621Z,4.19
2017-03-03T05:23:11.058Z,4.25
2017-03-03T05:23:51.494Z,4.19
2017-03-03T05:24:31.940Z,4.15
2017-03-03T05:25:12.364Z,4.04
2017-03-03T05:25:52.830Z,4.04
2017-03-03T05:26:33.284Z,4.01
2017-03-03T05:27:13.718Z,4.16
2017-03-03T05:27:54.162Z,4.18
2017-03-03T05:28:34.601Z,4.1
2017-03-03T05:29:15.034Z,4.19
2017-03-03T05:29:55.479Z,4.18
2017-03-03T05:30:35.916Z,4.01
2017-03-03T05:31:16.373Z,4.14
2017-03-03T05:31:56.821Z,4.01
2017-03-03T05:32:37.264Z,4
2017-03-03T05:33:18.503Z,4.01
2017-03-03T05:33:58.939Z,4.01
2017-03-03T05:34:39.364Z,3.97
2017-03-03T05:35:19.794Z,4
2017-03-03T05:36:00.242Z,3.96
2017-03-03T05:36:40.669Z,4
2017-03-03T05:37:21.092Z,3.92
2017-03-03T05:38:01.544Z,3.88
2017-03-03T05:38:42.014Z,3.92
2017-03-03T05:39:22.418Z,3.9
2017-03-03T05:40:02.861Z,3.85
2017-03-03T05:40:43.291Z,3.71
2017-03-03T05:41:23.731Z,3.75
2017-03-03T05:42:04.162Z,3.78
2017-03-03T05:42:44.589Z,3.68
2017-03-03T05:43:25.041Z,3.67
2017-03-03T05:44:05.477Z,3.71
2017-03-03T05:44:45.931Z,3.68
2017-03-03T05:45:26.378Z,3.65
2017-03-03T05:46:06.800Z,3.68
2017-03-03T05:46:47.243Z,3.64
2017-03-03T05:47:27.690Z,3.65
2017-03-03T05:48:08.173Z,3.65
2017-03-03T05:48:48.612Z,3.64
2017-03-03T05:49:29.032Z,3.64
2017-03-03T05:50:09.486Z,3.65
2017-03-03T05:50:49.925Z,3.65
2017-03-03T05:51:30.366Z,3.78
2017-03-03T05:52:10.799Z,3.8
2017-03-03T05:52:51.215Z,3.82
2017-03-03T05:53:31.626Z,3.88
2017-03-03T05:55:44.304Z,3.98
2017-03-03T05:56:24.731Z,4
2017-03-03T05:57:05.161Z,4.04
2017-03-03T05:57:45.594Z,4.08
2017-03-03T05:58:26.036Z,4.01
2017-03-03T05:59:06.435Z,4.04
2017-03-03T05:59:46.863Z,4.1
2017-03-03T06:00:27.293Z,4
2017-03-03T06:01:07.741Z,4
2017-03-03T06:01:48.184Z,4
2017-03-03T06:02:28.609Z,3.89
2017-03-03T06:03:09.061Z,3.9
2017-03-03T06:03:49.455Z,3.82
2017-03-03T06:04:29.902Z,3.86
2017-03-03T06:05:10.287Z,3.96
2017-03-03T06:05:51.594Z,3.88
2017-03-03T06:06:31.974Z,3.85
2017-03-03T06:07:12.394Z,3.89
2017-03-03T06:07:52.779Z,3.82
2017-03-03T06:09:30.119Z,4
2017-03-03T06:10:10.545Z,3.97
2017-03-03T06:10:50.992Z,4.06
2017-03-03T06:11:31.446Z,4.01
2017-03-03T06:12:11.870Z,4.03
2017-03-03T06:12:52.308Z,4.04
2017-03-03T06:13:32.745Z,3.97
2017-03-03T06:14:13.188Z,4
2017-03-03T06:14:53.638Z,4.03
2017-03-03T06:15:34.061Z,3.96
2017-03-03T06:16:14.467Z,4.06
2017-03-03T06:16:54.913Z,3.94
2017-03-03T06:17:35.409Z,3.96
2017-03-03T06:18:15.847Z,3.98
2017-03-03T06:18:56.283Z,3.88
2017-03-03T06:19:36.727Z,3.9
2017-03-03T06:20:17.162Z,3.9
2017-03-03T06:20:57.597Z,3.85
2017-03-03T06:21:38.026Z,3.89
2017-03-03T06:22:18.435Z,3.89
2017-03-03T06:22:58.865Z,3.86
2017-03-03T06:23:39.290Z,3.9
2017-03-03T06:24:19.734Z,3.92
2017-03-03T06:25:00.154Z,3.97
2017-03-03T06:25:40.570Z,3.94
2017-03-03T06:26:20.976Z,3.9
2017-03-03T06:27:01.404Z,3.85
2017-03-03T06:27:41.787Z,3.85
2017-03-03T06:28:22.177Z,3.92
2017-03-03T06:29:02.603Z,3.96
2017-03-03T06:29:43.022Z,3.96
2017-03-03T06:30:23.460Z,3.92
2017-03-03T06:31:03.899Z,3.85
2017-03-03T06:31:44.332Z,3.98
2017-03-03T06:32:24.756Z,4.04
2017-03-03T06:33:05.197Z,3.98
2017-03-03T06:33:45.629Z,3.98
2017-03-03T06:34:26.073Z,4.07
2017-03-03T06:35:06.525Z,4.19
2017-03-03T06:35:46.958Z,4.22
2017-03-03T06:36:27.428Z,4.16
2017-03-03T06:37:07.856Z,4.16
2017-03-03T06:37:48.304Z,4.28
2017-03-03T06:38:28.757Z,4.26
2017-03-03T06:39:09.213Z,4.28
2017-03-03T06:39:49.632Z,4.33
2017-03-03T06:40:30.060Z,4.4
2017-03-03T06:41:10.491Z,4.37
2017-03-03T06:41:50.938Z,4.42
2017-03-03T06:42:31.372Z,4.43
2017-03-03T06:43:11.818Z,4.58
2017-03-03T06:43:52.254Z,4.59
2017-03-03T06:44:32.714Z,4.59
2017-03-03T06:45:13.146Z,4.69
2017-03-03T06:45:53.604Z,4.76
2017-03-03T06:46:34.047Z,4.77
2017-03-03T06:47:14.478Z,4.83
2017-03-03T06:47:54.912Z,4.91
2017-03-03T06:48:35.380Z,5.02
2017-03-03T06:49:15.821Z,5.04
2017-03-03T06:49:56.250Z,5.07
2017-03-03T06:50:36.694Z,5.2
2017-03-03T06:51:17.138Z,5.27
2017-03-03T06:51:57.576Z,5.25
2017-03-03T06:52:38.012Z,5.27
2017-03-03T06:53:18.457Z,5.28
2017-03-03T06:53:58.890Z,5.34
2017-03-03T06:54:39.350Z,5.38
2017-03-03T06:55:19.802Z,5.31
2017-03-03T06:56:00.254Z,5.48
2017-03-03T06:56:40.698Z,5.45
2017-03-03T06:57:21.135Z,5.49
2017-03-03T06:58:01.529Z,5.48
2017-03-03T06:58:41.943Z,5.45
2017-03-03T06:59:22.372Z,5.55
2017-03-03T07:00:03.404Z,5.53
2017-03-03T07:00:43.845Z,5.59
2017-03-03T07:01:24.287Z,5.53
2017-03-03T07:02:05.504Z,5.66
2017-03-03T07:02:45.946Z,5.7
2017-03-03T07:03:26.374Z,5.73
2017-03-03T07:04:06.806Z,5.77
2017-03-03T07:04:47.251Z,5.75
2017-03-03T07:05:27.693Z,5.88
2017-03-03T07:06:08.136Z,5.96
2017-03-03T07:06:48.569Z,5.86
2017-03-03T07:07:29.004Z,5.91
2017-03-03T07:08:10.088Z,6.09
2017-03-03T07:08:50.505Z,6.1
2017-03-03T07:09:30.917Z,6.13
2017-03-03T07:10:11.331Z,6.11
2017-03-03T07:10:51.765Z,6.19
2017-03-03T07:11:32.183Z,6.25
2017-03-03T07:12:12.631Z,6.33
2017-03-03T07:12:53.067Z,6.32
2017-03-03T07:13:33.511Z,6.32
2017-03-03T07:14:14.906Z,6.33
2017-03-03T07:14:55.354Z,6.4
2017-03-03T07:15:35.788Z,6.3
2017-03-03T07:16:16.221Z,6.33
2017-03-03T07:16:56.659Z,6.43
2017-03-03T07:17:37.095Z,6.46
2017-03-03T07:18:17.551Z,6.5
2017-03-03T07:18:57.986Z,6.41
2017-03-03T07:19:38.422Z,6.41
2017-03-03T07:20:18.845Z,6.38
2017-03-03T07:20:59.275Z,6.48
2017-03-03T07:21:39.718Z,6.44
2017-03-03T07:22:20.174Z,6.46
2017-03-03T07:23:00.611Z,6.56
2017-03-03T07:23:41.065Z,6.59
2017-03-03T07:24:21.489Z,6.54
2017-03-03T07:25:01.950Z,6.68
2017-03-03T07:25:42.381Z,6.69
2017-03-03T07:26:23.700Z,6.68
2017-03-03T07:27:04.140Z,6.76
2017-03-03T07:27:45.145Z,6.89
2017-03-03T07:28:25.555Z,6.76
2017-03-03T07:29:06.005Z,6.87
2017-03-03T07:29:46.432Z,6.89
2017-03-03T07:30:26.864Z,6.86
2017-03-03T07:31:07.295Z,6.91
2017-03-03T07:31:47.718Z,6.98
2017-03-03T07:32:28.665Z,6.94
2017-03-03T07:33:09.102Z,7.02
2017-03-03T07:33:49.524Z,6.97
2017-03-03T07:34:30.501Z,7.04
2017-03-03T07:35:10.932Z,6.87
2017-03-03T07:35:51.352Z,6.9
2017-03-03T07:36:31.749Z,6.91
2017-03-03T07:37:12.187Z,6.98
2017-03-03T07:37:52.632Z,6.89
2017-03-03T07:38:33.240Z,6.89
2017-03-03T07:39:14.336Z,6.87
2017-03-03T07:39:54.765Z,6.98
2017-03-03T07:40:35.211Z,6.94
2017-03-03T07:41:15.636Z,6.91
2017-03-03T07:41:56.074Z,6.79
2017-03-03T07:42:36.517Z,6.77
2017-03-03T07:43:17.905Z,6.76
2017-03-03T07:43:58.387Z,6.86
2017-03-03T07:44:38.851Z,6.81
2017-03-03T07:45:19.266Z,6.91
2017-03-03T07:45:59.691Z,6.98
2017-03-03T07:46:40.132Z,7.02
2017-03-03T07:47:20.577Z,7.09
2017-03-03T07:48:01.614Z,7.15
2017-03-03T07:48:42.091Z,7.19
2017-03-03T07:49:22.495Z,7.07
2017-03-03T07:50:02.910Z,7.2
2017-03-03T07:50:43.341Z,7.17
2017-03-03T07:51:23.798Z,7.24
2017-03-03T07:52:04.256Z,7.17
2017-03-03T07:52:44.694Z,7.29
2017-03-03T07:53:25.111Z,7.69
2017-03-03T07:54:05.560Z,7.58
2017-03-03T07:56:03.161Z,7.45
2017-03-03T07:56:43.648Z,7.59
2017-03-03T07:57:24.219Z,7.58
2017-03-03T07:58:04.634Z,7.66
2017-03-03T07:58:45.053Z,7.62
2017-03-03T07:59:25.504Z,7.78
2017-03-03T08:00:05.966Z,7.79
2017-03-03T08:00:46.409Z,7.72
2017-03-03T08:01:26.832Z,7.67
2017-03-03T08:02:07.266Z,7.71
2017-03-03T08:02:47.663Z,7.87
2017-03-03T08:03:28.120Z,7.96
2017-03-03T08:04:08.556Z,7.94
2017-03-03T08:04:49.011Z,7.94
2017-03-03T08:05:29.391Z,8.1
2017-03-03T08:06:09.826Z,8.12
2017-03-03T08:06:50.274Z,8
2017-03-03T08:07:30.670Z,8.12
2017-03-03T08:08:11.098Z,8.29
2017-03-03T08:08:51.875Z,8.18
2017-03-03T08:09:32.380Z,8.21
2017-03-03T08:10:12.779Z,8.36
2017-03-03T08:10:53.218Z,8.44
2017-03-03T08:11:33.617Z,8.63
2017-03-03T08:12:14.031Z,8.42
2017-03-03T08:12:54.519Z,8.37
2017-03-03T08:13:34.973Z,8.37
2017-03-03T08:14:15.348Z,8.5
2017-03-03T08:14:55.776Z,8.68
2017-03-03T08:15:36.208Z,8.57
2017-03-03T08:16:16.625Z,8.54
2017-03-03T08:16:57.041Z,8.45
2017-03-03T08:17:37.717Z,8.37
2017-03-03T08:18:18.849Z,8.54
2017-03-03T08:18:59.243Z,8.73
2017-03-03T08:19:39.705Z,8.86
2017-03-03T08:20:20.130Z,8.76
2017-03-03T08:21:00.554Z,8.58
2017-03-03T08:21:40.974Z,8.55
2017-03-03T08:22:21.393Z,8.44
2017-03-03T08:23:01.799Z,8.57
2017-03-03T08:23:42.179Z,8.54
2017-03-03T08:24:22.621Z,8.66
2017-03-03T08:25:03.033Z,8.51
2017-03-03T08:25:43.618Z,8.69
2017-03-03T08:26:23.898Z,8.6
2017-03-03T08:27:04.326Z,8.58
2017-03-03T08:29:01.879Z,8.54
2017-03-03T08:29:42.326Z,8.6
2017-03-03T08:30:22.734Z,8.65
2017-03-03T08:31:03.177Z,8.63
2017-03-03T08:31:43.632Z,8.69
2017-03-03T08:32:24.017Z,8.71
2017-03-03T08:33:04.417Z,8.86
2017-03-03T08:33:44.830Z,8.73
2017-03-03T08:34:25.242Z,9.02
2017-03-03T08:35:05.669Z,9.25
2017-03-03T08:35:46.088Z,9.18
2017-03-03T08:36:26.521Z,8.91
2017-03-03T08:37:06.962Z,9.1
2017-03-03T08:37:47.389Z,9.21
2017-03-03T08:38:27.992Z,9.32
2017-03-03T08:39:08.571Z,9.38
2017-03-03T08:39:48.993Z,9.43
2017-03-03T08:40:29.442Z,9.7
2017-03-03T08:41:09.894Z,9.64
2017-03-03T08:41:50.342Z,9.64
2017-03-03T08:42:30.782Z,9.52
2017-03-03T08:43:11.219Z,9.52
2017-03-03T08:43:51.641Z,9.66
2017-03-03T08:44:32.091Z,9.91
2017-03-03T08:45:12.511Z,9.82
2017-03-03T08:45:52.962Z,9.78
2017-03-03T08:46:33.360Z,9.42
2017-03-03T08:47:13.791Z,9.4
2017-03-03T08:47:54.225Z,9.49
2017-03-03T08:48:34.630Z,9.67
2017-03-03T08:49:15.053Z,9.66
2017-03-03T08:49:55.505Z,9.76
2017-03-03T08:50:35.915Z,9.76
2017-03-03T08:51:16.364Z,9.91
2017-03-03T08:51:56.820Z,9.88
2017-03-03T08:52:37.265Z,9.97
2017-03-03T08:53:17.694Z,9.85
2017-03-03T08:53:58.140Z,9.88
2017-03-03T08:54:38.554Z,10.06
2017-03-03T08:55:19.024Z,10.01
2017-03-03T08:55:59.493Z,10.22
2017-03-03T08:56:39.915Z,10.28
2017-03-03T08:57:20.341Z,10.32
2017-03-03T08:58:00.774Z,10.36
2017-03-03T08:58:41.189Z,10.44
2017-03-03T08:59:21.623Z,10.68
2017-03-03T09:00:02.082Z,10.84
2017-03-03T09:00:42.489Z,10.86
2017-03-03T09:01:22.937Z,10.4
2017-03-03T09:02:03.380Z,10.34
2017-03-03T09:02:43.809Z,10.3
2017-03-03T09:03:24.263Z,10.4
2017-03-03T09:04:04.711Z,10.44
2017-03-03T09:04:45.116Z,10.36
2017-03-03T09:05:25.548Z,10.59
2017-03-03T09:06:05.974Z,10.58
2017-03-03T09:06:46.400Z,10.73
2017-03-03T09:07:26.815Z,10.77
2017-03-03T09:08:07.257Z,10.86
2017-03-03T09:08:47.651Z,11.09
2017-03-03T09:09:28.066Z,11.47
2017-03-03T09:10:08.511Z,11.28
2017-03-03T09:10:48.932Z,11.35
2017-03-03T09:11:29.432Z,11.27
2017-03-03T09:12:09.858Z,11.5
2017-03-03T09:12:50.293Z,11.53
2017-03-03T09:13:30.726Z,11.56
2017-03-03T09:14:11.174Z,11.53
2017-03-03T09:14:51.587Z,11.57
2017-03-03T09:15:32.133Z,11.68
2017-03-03T09:16:12.493Z,11.82